createdAt,value
2018-12-11T00:00:20.655Z,0.53
2018-12-11T00:02:47.368Z,0.67
2018-12-11T00:05:13.373Z,0.80
2018-12-11T00:07:39.332Z,0.50
2018-12-11T00:10:05.334Z,0.90
2018-12-11T00:12:31.290Z,0.57
2018-12-11T00:14:57.267Z,0.53
2018-12-11T00:17:23.230Z,0.70
2018-12-11T00:19:49.210Z,0.93
2018-12-11T00:22:15.174Z,0.77
2018-12-11T00:24:41.880Z,1.37
2018-12-11T00:27:07.868Z,0.53
2018-12-11T00:29:33.813Z,1.00
2018-12-11T00:31:59.840Z,1.07
2018-12-11T00:34:25.821Z,0.53
2018-12-11T00:36:52.569Z,1.30
2018-12-11T00:39:18.531Z,0.90
2018-12-11T00:41:44.528Z,1.00
2018-12-11T00:44:10.502Z,0.37
2018-12-11T00:46:36.518Z,0.57
2018-12-11T00:49:02.489Z,0.50
2018-12-11T00:51:29.215Z,0.73
2018-12-11T00:53:55.914Z,0.50
2018-12-11T00:56:21.940Z,1.23
2018-12-11T00:58:47.887Z,1.03
2018-12-11T01:01:14.655Z,0.80
2018-12-11T01:03:40.652Z,0.70
2018-12-11T01:06:06.651Z,0.60
2018-12-11T01:08:32.596Z,0.53
2018-12-11T01:10:58.571Z,1.00
2018-12-11T01:13:24.508Z,0.50
2018-12-11T01:15:50.474Z,1.63
2018-12-11T01:18:17.188Z,0.53
2018-12-11T01:20:43.286Z,0.47
2018-12-11T01:23:09.245Z,0.70
2018-12-11T01:25:35.238Z,0.77
2018-12-11T01:28:01.212Z,0.33
2018-12-11T01:30:27.192Z,0.20
2018-12-11T01:32:53.213Z,0.63
2018-12-11T01:35:19.182Z,0.67
2018-12-11T01:37:45.917Z,0.53
2018-12-11T01:40:12.621Z,0.53
2018-12-11T01:42:38.597Z,0.70
2018-12-11T01:45:05.293Z,0.87
2018-12-11T01:47:31.289Z,0.37
2018-12-11T01:49:57.236Z,0.53
2018-12-11T01:52:23.201Z,0.73
2018-12-11T01:54:49.911Z,0.40
2018-12-11T01:57:15.902Z,0.60
2018-12-11T01:59:41.873Z,0.60
2018-12-11T02:02:08.596Z,0.50
2018-12-11T02:04:34.576Z,0.63
2018-12-11T02:07:00.585Z,0.60
2018-12-11T02:09:26.525Z,0.40
2018-12-11T02:11:52.524Z,0.60
2018-12-11T02:14:18.498Z,0.20
2018-12-11T02:16:45.222Z,0.40
2018-12-11T02:19:11.191Z,0.90
2018-12-11T02:21:41.985Z,0.53
2018-12-11T02:24:04.690Z,0.67
2018-12-11T02:26:30.715Z,0.77
2018-12-11T02:28:56.683Z,1.07
2018-12-11T02:31:22.675Z,0.23
2018-12-11T02:33:48.673Z,0.37
2018-12-11T02:36:15.401Z,0.50
2018-12-11T02:38:42.114Z,0.47
2018-12-11T02:41:08.828Z,0.30
2018-12-11T02:43:34.807Z,0.30
2018-12-11T02:46:01.537Z,0.30
2018-12-11T02:48:27.489Z,0.30
2018-12-11T02:50:53.506Z,0.70
2018-12-11T02:53:19.478Z,0.37
2018-12-11T02:55:45.452Z,0.30
2018-12-11T02:58:12.170Z,0.40
2018-12-11T03:00:38.933Z,0.60
2018-12-11T03:03:05.634Z,0.30
2018-12-11T03:05:31.619Z,0.40
2018-12-11T03:07:57.579Z,0.57
2018-12-11T03:10:23.564Z,0.40
2018-12-11T03:12:49.543Z,0.80
2018-12-11T03:15:15.512Z,0.40
2018-12-11T03:17:41.505Z,0.43
2018-12-11T03:20:07.508Z,0.57
2018-12-11T03:22:34.224Z,0.90
2018-12-11T03:25:00.245Z,0.53
2018-12-11T03:27:26.211Z,0.63
2018-12-11T03:29:52.937Z,0.40
2018-12-11T03:32:19.656Z,0.70
2018-12-11T03:34:45.668Z,0.53
2018-12-11T03:37:11.645Z,0.60
2018-12-11T03:39:37.651Z,0.43
2018-12-11T03:42:03.608Z,0.53
2018-12-11T03:44:29.581Z,0.47
2018-12-11T03:46:55.579Z,0.20
2018-12-11T03:49:21.538Z,0.60
2018-12-11T03:51:48.276Z,0.40
2018-12-11T03:54:14.302Z,0.33
2018-12-11T03:56:41.044Z,0.30
2018-12-11T03:59:06.993Z,0.20
2018-12-11T04:01:32.986Z,0.50
2018-12-11T04:03:59.714Z,0.67
2018-12-11T04:06:26.483Z,0.50
2018-12-11T04:08:52.458Z,0.20
2018-12-11T04:11:18.469Z,0.57
2018-12-11T04:13:44.434Z,0.30
2018-12-11T04:16:11.164Z,0.40
2018-12-11T04:18:37.131Z,0.97
2018-12-11T04:21:03.112Z,0.50
2018-12-11T04:23:29.093Z,0.40
2018-12-11T04:25:55.095Z,0.37
2018-12-11T04:28:21.080Z,0.20
2018-12-11T04:30:47.118Z,0.43
2018-12-11T04:33:13.083Z,0.70
2018-12-11T04:35:39.068Z,0.30
2018-12-11T04:38:05.763Z,0.60
2018-12-11T04:40:31.764Z,0.27
2018-12-11T04:42:57.729Z,0.30
2018-12-11T04:45:23.724Z,0.40
2018-12-11T04:47:49.699Z,0.50
2018-12-11T04:50:16.435Z,0.33
2018-12-11T04:52:43.149Z,0.50
2018-12-11T04:55:09.126Z,0.23
2018-12-11T04:57:35.106Z,0.40
2018-12-11T05:00:01.130Z,0.40
2018-12-11T05:02:27.148Z,0.47
2018-12-11T05:04:53.162Z,0.47
2018-12-11T05:07:19.152Z,0.60
2018-12-11T05:09:45.122Z,0.50
2018-12-11T05:12:11.116Z,0.40
2018-12-11T05:14:37.105Z,0.27
2018-12-11T05:17:03.845Z,1.30
2018-12-11T05:19:29.801Z,0.80
2018-12-11T05:21:55.797Z,0.17
2018-12-11T05:24:21.752Z,0.40
2018-12-11T05:26:47.747Z,0.57
2018-12-11T05:29:13.729Z,0.33
2018-12-11T05:31:39.728Z,0.57
2018-12-11T05:34:05.729Z,0.67
2018-12-11T05:36:31.749Z,0.40
2018-12-11T05:38:57.813Z,0.83
2018-12-11T05:41:23.978Z,0.57
2018-12-11T05:43:50.896Z,0.67
2018-12-11T05:46:16.878Z,0.30
2018-12-11T05:48:42.848Z,0.50
2018-12-11T05:51:09.584Z,0.50
2018-12-11T05:53:35.539Z,0.63
2018-12-11T05:56:01.544Z,0.40
2018-12-11T05:58:28.267Z,0.63
2018-12-11T06:00:54.253Z,0.60
2018-12-11T06:03:20.218Z,0.30
2018-12-11T06:05:46.969Z,1.20
2018-12-11T06:08:12.967Z,0.40
2018-12-11T06:10:38.926Z,0.53
2018-12-11T06:13:05.648Z,0.53
2018-12-11T06:15:31.627Z,0.70
2018-12-11T06:17:57.623Z,0.70
2018-12-11T06:20:23.576Z,0.70
2018-12-11T06:22:49.565Z,0.67
2018-12-11T06:25:15.507Z,0.50
2018-12-11T06:27:41.511Z,0.70
2018-12-11T06:30:07.454Z,0.97
2018-12-11T06:32:33.443Z,0.57
2018-12-11T06:35:00.124Z,0.83
2018-12-11T06:37:26.084Z,0.37
2018-12-11T06:39:52.823Z,1.03
2018-12-11T06:42:18.784Z,1.03
2018-12-11T06:44:44.755Z,0.60
2018-12-11T06:47:10.738Z,0.60
2018-12-11T06:49:36.697Z,0.50
2018-12-11T06:52:02.703Z,0.67
2018-12-11T06:54:28.665Z,0.67
2018-12-11T06:56:55.387Z,0.93
2018-12-11T06:59:21.358Z,0.90
2018-12-11T07:01:47.323Z,0.63
2018-12-11T07:04:13.283Z,0.80
2018-12-11T07:06:39.994Z,0.23
2018-12-11T07:09:05.956Z,0.93
2018-12-11T07:11:32.674Z,1.00
2018-12-11T07:13:58.634Z,0.50
2018-12-11T07:16:24.624Z,0.30
2018-12-11T07:18:50.567Z,0.70
2018-12-11T07:21:16.546Z,0.60
2018-12-11T07:23:42.515Z,0.57
2018-12-11T07:26:08.563Z,1.20
2018-12-11T07:28:34.580Z,0.67
2018-12-11T07:31:00.533Z,1.53
2018-12-11T07:33:26.505Z,0.80
2018-12-11T07:35:52.456Z,0.83
2018-12-11T07:38:18.431Z,1.00
2018-12-11T07:40:45.143Z,1.00
2018-12-11T07:43:11.120Z,0.90
2018-12-11T07:45:37.093Z,1.53
2018-12-11T07:48:03.081Z,1.13
2018-12-11T07:50:29.034Z,1.70
2018-12-11T07:52:55.024Z,0.73
2018-12-11T07:55:20.984Z,0.87
2018-12-11T07:57:46.948Z,1.00
2018-12-11T08:00:12.904Z,0.50
2018-12-11T08:02:38.893Z,0.90
2018-12-11T08:05:04.868Z,0.50
2018-12-11T08:07:30.831Z,0.97
2018-12-11T08:09:57.557Z,0.83
2018-12-11T08:12:24.248Z,1.03
2018-12-11T08:14:50.245Z,0.80
2018-12-11T08:17:16.187Z,0.60
2018-12-11T08:19:42.163Z,0.93
2018-12-11T08:22:08.862Z,0.80
2018-12-11T08:24:34.817Z,1.00
2018-12-11T08:27:00.775Z,1.07
2018-12-11T08:29:26.761Z,0.80
2018-12-11T08:31:52.726Z,0.83
2018-12-11T08:34:18.705Z,1.00
2018-12-11T08:36:45.416Z,0.80
2018-12-11T08:39:11.399Z,1.37
2018-12-11T08:41:37.375Z,0.70
2018-12-11T08:44:03.354Z,1.10
2018-12-11T08:46:29.309Z,0.83
2018-12-11T08:48:55.272Z,1.67
2018-12-11T08:51:21.243Z,1.10
2018-12-11T08:53:47.203Z,0.77
2018-12-11T08:56:13.914Z,1.23
2018-12-11T08:58:39.859Z,0.47
2018-12-11T09:01:05.839Z,0.97
2018-12-11T09:03:31.808Z,1.30
2018-12-11T09:05:57.795Z,1.00
2018-12-11T09:08:23.762Z,1.07
2018-12-11T09:10:50.480Z,1.57
2018-12-11T09:13:16.445Z,1.60
2018-12-11T09:15:42.429Z,0.70
2018-12-11T09:18:08.384Z,0.70
2018-12-11T09:20:35.152Z,0.77
2018-12-11T09:23:01.136Z,0.93
2018-12-11T09:25:27.866Z,0.80
2018-12-11T09:27:53.815Z,1.27
2018-12-11T09:30:20.518Z,0.80
2018-12-11T09:32:46.501Z,1.27
2018-12-11T09:35:12.450Z,1.23
2018-12-11T09:37:38.420Z,1.20
2018-12-11T09:40:04.387Z,1.13
2018-12-11T09:42:30.352Z,0.90
2018-12-11T09:44:57.051Z,1.40
2018-12-11T09:47:23.030Z,0.70
2018-12-11T09:49:49.731Z,1.20
2018-12-11T09:52:15.734Z,1.40
2018-12-11T09:54:41.698Z,1.03
2018-12-11T09:57:08.418Z,1.27
2018-12-11T09:59:34.376Z,1.17
2018-12-11T10:02:01.078Z,0.60
2018-12-11T10:04:27.066Z,0.63
2018-12-11T10:06:53.069Z,1.30
2018-12-11T10:09:19.044Z,1.27
2018-12-11T10:11:44.999Z,0.83
2018-12-11T10:14:11.719Z,1.30
2018-12-11T10:16:37.676Z,0.70
2018-12-11T10:19:03.654Z,0.93
2018-12-11T10:21:29.626Z,1.10
2018-12-11T10:23:55.607Z,1.27
2018-12-11T10:26:21.562Z,1.00
2018-12-11T10:28:47.547Z,1.00
2018-12-11T10:31:13.517Z,0.90
2018-12-11T10:33:39.470Z,0.80
2018-12-11T10:36:05.456Z,1.00
2018-12-11T10:38:31.414Z,1.30
2018-12-11T10:40:57.387Z,1.03
2018-12-11T10:43:23.347Z,1.00
2018-12-11T10:45:49.343Z,1.17
2018-12-11T10:48:15.304Z,1.33
2018-12-11T10:50:41.294Z,1.40
2018-12-11T10:53:07.237Z,1.00
2018-12-11T10:55:33.969Z,1.13
2018-12-11T10:57:59.934Z,1.40
2018-12-11T11:00:25.920Z,1.37
2018-12-11T11:02:51.890Z,1.63
2018-12-11T11:05:17.888Z,1.03
2018-12-11T11:07:43.880Z,1.20
2018-12-11T11:10:09.863Z,1.17
2018-12-11T11:12:36.606Z,1.10
2018-12-11T11:15:03.350Z,1.07
2018-12-11T11:17:29.325Z,1.33
2018-12-11T11:19:55.304Z,1.23
2018-12-11T11:22:22.027Z,1.10
2018-12-11T11:24:47.978Z,1.00
2018-12-11T11:27:13.971Z,1.80
2018-12-11T11:29:39.916Z,1.33
2018-12-11T11:32:06.649Z,1.07
2018-12-11T11:34:33.348Z,1.20
2018-12-11T11:36:59.362Z,1.10
2018-12-11T11:39:25.357Z,1.50
2018-12-11T11:41:51.316Z,0.93
2018-12-11T11:44:17.297Z,0.77
2018-12-11T11:46:43.236Z,1.23
2018-12-11T11:49:09.205Z,1.20
2018-12-11T11:51:35.209Z,1.20
2018-12-11T11:54:01.190Z,1.27
2018-12-11T11:56:27.172Z,0.80
2018-12-11T11:58:53.154Z,1.53
2018-12-11T12:01:19.106Z,0.80
2018-12-11T12:03:45.086Z,1.30
2018-12-11T12:06:11.039Z,1.00
2018-12-11T12:08:37.038Z,1.00
2018-12-11T12:11:03.743Z,0.97
2018-12-11T12:13:30.470Z,0.90
2018-12-11T12:15:56.429Z,0.97
2018-12-11T12:18:22.363Z,1.07
2018-12-11T12:20:48.340Z,1.10
2018-12-11T12:23:15.047Z,0.93
2018-12-11T12:25:41.028Z,1.20
2018-12-11T12:28:06.988Z,1.03
2018-12-11T12:30:32.962Z,1.13
2018-12-11T12:32:59.658Z,1.10
2018-12-11T12:35:25.636Z,1.00
2018-12-11T12:37:51.575Z,1.80
2018-12-11T12:40:18.283Z,1.57
2018-12-11T12:42:44.969Z,1.43
2018-12-11T12:45:10.969Z,1.23
2018-12-11T12:47:36.924Z,1.70
2018-12-11T12:50:02.909Z,1.73
2018-12-11T12:52:28.855Z,1.07
2018-12-11T12:54:54.850Z,1.00
2018-12-11T12:57:20.819Z,0.90
2018-12-11T12:59:46.793Z,1.27
2018-12-11T13:02:12.774Z,0.90
2018-12-11T13:04:38.780Z,1.07
2018-12-11T13:07:04.772Z,1.40
2018-12-11T13:09:30.772Z,1.00
2018-12-11T13:11:57.510Z,0.73
2018-12-11T13:14:24.223Z,1.27
2018-12-11T13:16:50.219Z,1.03
2018-12-11T13:19:16.193Z,1.23
2018-12-11T13:21:42.169Z,1.10
2018-12-11T13:24:08.112Z,0.90
2018-12-11T13:26:34.081Z,1.13
2018-12-11T13:29:00.778Z,1.07
2018-12-11T13:31:26.750Z,1.00
2018-12-11T13:33:52.715Z,1.43
2018-12-11T13:36:18.694Z,1.23
2018-12-11T13:38:44.694Z,1.00
2018-12-11T13:41:11.678Z,1.27
2018-12-11T13:43:37.679Z,0.70
2018-12-11T13:46:03.628Z,0.70
2018-12-11T13:48:30.391Z,1.30
2018-12-11T13:50:56.360Z,1.17
2018-12-11T13:53:22.346Z,0.83
2018-12-11T13:55:48.295Z,0.63
2018-12-11T13:58:15.022Z,0.90
2018-12-11T14:00:40.979Z,1.10
2018-12-11T14:03:06.970Z,0.77
2018-12-11T14:05:33.659Z,0.53
2018-12-11T14:07:59.656Z,0.70
2018-12-11T14:10:25.612Z,0.60
2018-12-11T14:12:51.600Z,0.30
2018-12-11T14:15:17.557Z,0.50
2018-12-11T14:17:43.551Z,0.40
2018-12-11T14:20:09.564Z,0.40
2018-12-11T14:22:36.238Z,0.60
2018-12-11T14:25:02.231Z,0.80
2018-12-11T14:27:28.203Z,0.77
2018-12-11T14:29:54.200Z,0.80
2018-12-11T14:32:20.171Z,0.70
2018-12-11T14:34:46.145Z,0.90
2018-12-11T14:37:12.093Z,0.83
2018-12-11T14:39:38.067Z,0.87
2018-12-11T14:42:04.059Z,1.00
2018-12-11T14:44:30.070Z,1.07
2018-12-11T14:46:56.040Z,1.10
2018-12-11T14:49:22.044Z,1.67
2018-12-11T14:51:48.071Z,1.37
2018-12-11T14:54:14.796Z,0.90
2018-12-11T14:56:40.794Z,1.00
2018-12-11T14:59:06.753Z,0.90
2018-12-11T15:01:33.461Z,0.90
2018-12-11T15:03:59.467Z,0.80
2018-12-11T15:06:25.453Z,1.17
2018-12-11T15:08:51.412Z,0.20
2018-12-11T15:11:17.408Z,0.40
2018-12-11T15:13:43.366Z,0.30
2018-12-11T15:16:09.338Z,0.37
2018-12-11T15:18:36.027Z,0.47
2018-12-11T15:21:02.005Z,0.60
2018-12-11T15:23:27.963Z,0.47
2018-12-11T15:25:53.915Z,0.63
2018-12-11T15:28:19.869Z,0.80
2018-12-11T15:30:45.859Z,0.70
2018-12-11T15:33:11.822Z,0.80
2018-12-11T15:35:37.797Z,0.77
2018-12-11T15:38:03.757Z,0.50
2018-12-11T15:40:29.722Z,0.57
2018-12-11T15:42:55.703Z,0.77
2018-12-11T15:45:22.399Z,0.37
2018-12-11T15:47:48.411Z,0.37
2018-12-11T15:50:14.407Z,0.33
2018-12-11T15:52:40.455Z,0.80
2018-12-11T15:55:06.414Z,0.77
2018-12-11T15:57:32.410Z,0.60
2018-12-11T15:59:58.375Z,0.57
2018-12-11T16:02:25.097Z,0.80
2018-12-11T16:04:51.059Z,0.50
2018-12-11T16:07:17.031Z,0.50
2018-12-11T16:09:43.009Z,0.47
2018-12-11T16:12:09.001Z,0.50
2018-12-11T16:14:34.946Z,0.90
2018-12-11T16:17:00.897Z,0.60
2018-12-11T16:19:26.883Z,0.60
2018-12-11T16:21:52.850Z,0.50
2018-12-11T16:24:18.830Z,0.50
2018-12-11T16:26:44.804Z,0.60
2018-12-11T16:29:10.789Z,0.53
2018-12-11T16:31:36.756Z,0.87
2018-12-11T16:34:02.748Z,0.60
2018-12-11T16:36:28.712Z,0.63
2018-12-11T16:38:54.677Z,0.93
2018-12-11T16:41:20.626Z,0.80
2018-12-11T16:43:46.684Z,0.90
2018-12-11T16:46:12.629Z,0.70
2018-12-11T16:48:39.350Z,0.50
2018-12-11T16:51:05.311Z,0.80
2018-12-11T16:53:31.267Z,0.77
2018-12-11T16:55:57.234Z,0.67
2018-12-11T16:58:23.938Z,0.60
2018-12-11T17:00:49.920Z,0.63
2018-12-11T17:03:15.880Z,0.97
2018-12-11T17:05:41.878Z,0.80
2018-12-11T17:08:07.857Z,1.27
2018-12-11T17:10:34.576Z,0.77
2018-12-11T17:13:01.282Z,0.73
2018-12-11T17:15:27.279Z,1.30
2018-12-11T17:17:53.969Z,1.20
2018-12-11T17:20:19.967Z,1.30
2018-12-11T17:22:45.935Z,1.63
2018-12-11T17:25:11.938Z,1.00
2018-12-11T17:27:37.911Z,1.13
2018-12-11T17:30:03.913Z,1.23
2018-12-11T17:32:29.878Z,1.50
2018-12-11T17:34:55.852Z,1.20
2018-12-11T17:37:22.583Z,1.27
2018-12-11T17:39:48.560Z,1.07
2018-12-11T17:42:14.563Z,1.20
2018-12-11T17:44:40.623Z,1.20
2018-12-11T17:47:06.628Z,1.37
2018-12-11T17:49:32.586Z,1.30
2018-12-11T17:51:58.593Z,1.60
2018-12-11T17:54:24.545Z,1.30
2018-12-11T17:56:50.523Z,1.30
2018-12-11T17:59:16.471Z,1.10
2018-12-11T18:01:42.466Z,1.70
2018-12-11T18:04:08.437Z,1.20
2018-12-11T18:06:34.435Z,1.20
2018-12-11T18:09:00.389Z,1.13
2018-12-11T18:11:26.339Z,1.33
2018-12-11T18:13:52.318Z,1.23
2018-12-11T18:16:18.288Z,1.50
2018-12-11T18:18:44.271Z,1.43
2018-12-11T18:21:10.237Z,1.47
2018-12-11T18:23:36.226Z,1.57
2018-12-11T18:26:02.946Z,1.43
2018-12-11T18:28:28.931Z,1.43
2018-12-11T18:30:54.873Z,1.73
2018-12-11T18:33:20.855Z,2.00
2018-12-11T18:35:46.819Z,2.43
2018-12-11T18:38:12.822Z,1.87
2018-12-11T18:40:38.815Z,2.50
2018-12-11T18:43:05.558Z,1.97
2018-12-11T18:45:32.306Z,2.33
2018-12-11T18:47:58.277Z,2.57
2018-12-11T18:50:24.291Z,3.00
2018-12-11T18:52:50.252Z,3.47
2018-12-11T18:55:16.989Z,2.83
2018-12-11T18:57:42.938Z,2.63
2018-12-11T19:00:08.919Z,3.40
2018-12-11T19:02:34.870Z,3.23
2018-12-11T19:05:01.599Z,3.27
2018-12-11T19:07:28.301Z,2.70
2018-12-11T19:09:55.029Z,3.47
2018-12-11T19:12:20.309Z,3.17
2018-12-11T19:14:47.010Z,2.87
2018-12-11T19:17:12.980Z,3.17
2018-12-11T19:19:38.929Z,3.07
2018-12-11T19:22:04.911Z,2.80
2018-12-11T19:24:31.607Z,2.87
2018-12-11T19:26:57.611Z,3.40
2018-12-11T19:29:24.320Z,2.20
2018-12-11T19:31:51.031Z,2.43
2018-12-11T19:34:16.990Z,3.30
2018-12-11T19:36:42.987Z,2.30
2018-12-11T19:39:08.919Z,1.97
2018-12-11T19:41:35.645Z,1.83
2018-12-11T19:44:02.361Z,1.67
2018-12-11T19:46:28.332Z,1.63
2018-12-11T19:48:55.047Z,1.50
2018-12-11T19:51:20.978Z,1.30
2018-12-11T19:53:47.726Z,1.53
2018-12-11T19:56:14.427Z,1.33
2018-12-11T19:58:40.419Z,1.10
2018-12-11T20:01:06.382Z,1.53
2018-12-11T20:03:32.416Z,1.27
2018-12-11T20:05:59.131Z,1.23
2018-12-11T20:08:30.908Z,1.30
2018-12-11T20:10:51.147Z,1.30
2018-12-11T20:13:17.162Z,1.20
2018-12-11T20:15:43.131Z,1.20
2018-12-11T20:18:12.890Z,1.37
2018-12-11T20:20:35.216Z,1.53
2018-12-11T20:23:01.899Z,1.23
2018-12-11T20:25:27.872Z,1.17
2018-12-11T20:27:54.579Z,1.47
2018-12-11T20:30:20.584Z,1.50
2018-12-11T20:32:46.564Z,1.20
2018-12-11T20:35:13.519Z,1.07
2018-12-11T20:37:39.717Z,1.30
2018-12-11T20:40:06.503Z,1.17
2018-12-11T20:42:32.464Z,1.50
2018-12-11T20:44:58.425Z,2.13
2018-12-11T20:47:25.128Z,2.40
2018-12-11T20:49:51.097Z,2.20
2018-12-11T20:52:17.078Z,3.83
2018-12-11T20:54:43.025Z,3.00
2018-12-11T20:57:09.748Z,3.80
2018-12-11T20:59:35.703Z,3.20
2018-12-11T21:02:01.694Z,3.10
2018-12-11T21:04:27.672Z,2.87
2018-12-11T21:07:00.619Z,3.60
2018-12-11T21:09:26.579Z,3.47
2018-12-11T21:11:52.560Z,3.63
2018-12-11T21:14:19.257Z,3.03
2018-12-11T21:16:45.241Z,3.27
2018-12-11T21:19:11.209Z,3.60
2018-12-11T21:21:37.197Z,2.70
2018-12-11T21:24:03.159Z,2.43
2018-12-11T21:26:29.139Z,3.00
2018-12-11T21:28:55.134Z,2.67
2018-12-11T21:31:21.888Z,2.77
2018-12-11T21:33:47.860Z,2.90
2018-12-11T21:36:13.834Z,2.53
2018-12-11T21:38:39.881Z,1.87
2018-12-11T21:41:05.864Z,2.17
2018-12-11T21:43:32.648Z,2.10
2018-12-11T21:45:58.584Z,2.33
2018-12-11T21:48:24.564Z,2.20
2018-12-11T21:50:52.009Z,1.90
2018-12-11T21:53:16.705Z,1.77
2018-12-11T21:55:43.410Z,1.90
2018-12-11T21:58:09.404Z,1.83
2018-12-11T22:00:35.354Z,1.83
2018-12-11T22:03:01.333Z,1.80
2018-12-11T22:05:27.298Z,2.20
2018-12-11T22:07:53.292Z,1.97
2018-12-11T22:10:19.247Z,1.50
2018-12-11T22:12:45.219Z,2.43
2018-12-11T22:15:11.160Z,2.20
2018-12-11T22:17:37.188Z,2.17
2018-12-11T22:20:03.152Z,1.70
2018-12-11T22:22:29.093Z,1.50
2018-12-11T22:24:55.097Z,2.10
2018-12-11T22:27:21.055Z,2.00
2018-12-11T22:29:47.781Z,2.10
2018-12-11T22:32:14.497Z,1.80
2018-12-11T22:34:40.463Z,2.37
2018-12-11T22:37:06.427Z,2.00
2018-12-11T22:39:32.427Z,1.63
2018-12-11T22:41:58.377Z,1.77
2018-12-11T22:44:24.353Z,1.80
2018-12-11T22:46:50.320Z,2.30
2018-12-11T22:49:16.318Z,2.23
2018-12-11T22:51:42.286Z,2.20
2018-12-11T22:54:08.294Z,1.93
2018-12-11T22:56:34.260Z,2.53
2018-12-11T22:59:00.244Z,1.97
2018-12-11T23:01:26.190Z,2.20
2018-12-11T23:03:52.900Z,1.93
2018-12-11T23:06:18.874Z,2.10
2018-12-11T23:08:44.838Z,1.90
2018-12-11T23:11:10.797Z,2.20
2018-12-11T23:13:37.514Z,2.50
2018-12-11T23:16:03.498Z,2.00
2018-12-11T23:18:29.479Z,1.90
2018-12-11T23:20:55.463Z,2.00
2018-12-11T23:23:21.422Z,1.57
2018-12-11T23:25:47.386Z,1.97
2018-12-11T23:28:13.338Z,1.73
2018-12-11T23:30:39.313Z,2.33
2018-12-11T23:33:05.268Z,2.37
2018-12-11T23:35:31.272Z,2.30
2018-12-11T23:37:57.276Z,2.37
2018-12-11T23:40:23.248Z,2.47
2018-12-11T23:42:49.197Z,2.90
2018-12-11T23:45:15.173Z,2.27
2018-12-11T23:47:41.135Z,2.43
2018-12-11T23:50:07.113Z,2.90
2018-12-11T23:52:33.057Z,2.43
2018-12-11T23:54:59.043Z,2.63
2018-12-11T23:57:25.079Z,2.20
2018-12-11T23:59:51.064Z,2.73
